Latest Weather Observations for Hobart Airport

IDT60901

Issued at 12:25 am EST Friday 3 October 2014 (issued every 10 minutes, with the page automatically refreshed every 10 minutes)

About weather observations | Map of Hobart area stations | Latest observations for Hobart area | Other Formats
Station Details ID: 094008 Name: HOBART AIRPORT Lat: -42.83 Lon: 147.50 Height: 4.0 m
Data from the previous 72 hours. | See also: Recent months at Hobart Airport
Date/Time
EST
Tmp

°C
App
Tmp
°C
Dew
Point
°C
Rel
Hum
%
Delta-T

°C
Wind Press
QNH
hPa
Press
MSL
hPa
Rain
since
9 am
mm
Dir
 
Spd
km/h
Gust
km/h
Spd
kts
Gust
kts
03/12:00am 9.1 5.0 0.0 53 3.6 SW 11 15 6 8 1019.3 1019.3 0.0
 
Date/Time
EST
Tmp

°C
App
Tmp
°C
Dew
Point
°C
Rel
Hum
%
Delta-T

°C
Wind Press
QNH
hPa
Press
MSL
hPa
Rain
since
9 am
mm
Dir
 
Spd
km/h
Gust
km/h
Spd
kts
Gust
kts
02/11:30pm 9.7 4.0 -0.7 48 4.1 SW 19 26 10 14 1019.1 1019.1 0.0
02/11:00pm 9.5 3.8 -0.4 50 3.9 SW 19 30 10 16 1018.9 1018.9 0.0
02/10:30pm 9.7 4.0 -0.4 49 4.0 SW 19 35 10 19 1018.8 1018.8 0.0
02/10:00pm 9.8 4.0 -0.3 49 4.0 SW 20 35 11 19 1018.9 1018.9 0.0
02/09:30pm 10.0 4.7 -0.3 48 4.1 SW 17 26 9 14 1018.8 1018.8 0.0
02/09:00pm 10.0 4.1 -0.6 47 4.2 WSW 20 30 11 16 1018.6 1018.6 0.0
02/08:30pm 10.1 2.3 -0.8 46 4.3 SW 30 48 16 26 1018.2 1018.2 0.0
02/08:28pm 10.2 2.3 -1.4 44 4.5 SW 30 48 16 26 1018.2 1018.2 0.0
02/08:00pm 10.4 2.9 -1.4 44 4.6 WSW 28 41 15 22 1018.0 1018.0 0.0
02/07:30pm 10.8 3.7 -1.5 42 4.8 WSW 26 37 14 20 1017.7 1017.7 0.0
02/07:00pm 11.4 5.6 -0.2 44 4.7 SW 20 32 11 17 1017.4 1017.4 0.0
02/06:30pm 11.3 5.2 0.3 46 4.5 SW 22 39 12 21 1016.8 1016.8 0.0
02/06:00pm 11.9 4.9 -0.8 41 5.1 SW 26 46 14 25 1016.1 1016.1 0.0
02/05:30pm 12.2 4.0 -1.0 40 5.3 SW 32 56 17 30 1015.5 1015.5 0.0
02/05:12pm 12.9 3.2 -2.0 35 5.9 SW 39 57 21 31 1014.8 1014.8 0.0
02/05:00pm 13.2 3.3 -1.1 37 5.8 WSW 41 54 22 29 1014.7 1014.7 0.0
02/04:37pm 13.9 3.6 -0.7 36 6.0 WSW 43 61 23 33 1014.6 1014.6 0.0
02/04:30pm 14.0 3.8 -0.5 37 6.0 WSW 43 56 23 30 1014.6 1014.6 0.0
02/04:00pm 14.2 4.2 -1.6 33 6.4 SW 41 54 22 29 1014.5 1014.5 0.0
02/03:30pm 15.2 5.6 -1.3 32 6.8 SW 39 59 21 32 1014.0 1014.0 0.0
02/03:21pm 15.2 5.1 -2.1 30 7.0 SW 41 59 22 32 1013.9 1013.9 0.0
02/03:00pm 15.7 4.2 -0.1 34 6.7 SW 50 59 27 32 1013.5 1013.5 0.0
02/02:30pm 16.5 8.5 0.6 34 6.9 SSW 32 50 17 27 1013.1 1013.1 0.0
02/02:00pm 15.6 8.7 6.6 55 4.4 S 32 50 17 27 1013.1 1013.1 0.0
02/01:34pm 16.3 10.2 6.8 53 4.7 SSW 28 46 15 25 1012.8 1012.8 0.0
02/01:30pm 16.6 10.9 6.9 52 4.8 SW 26 43 14 23 1012.8 1012.8 0.0
02/01:00pm 16.9 9.1 2.6 38 6.5 SW 33 44 18 24 1012.6 1012.6 0.0
02/12:45pm 17.2 9.0 2.8 38 6.6 SW 35 54 19 29 1012.6 1012.6 0.0
02/12:30pm 17.4 9.1 2.1 36 6.9 SW 35 44 19 24 1012.7 1012.7 0.0
02/12:00pm 17.8 10.2 2.8 36 6.9 SW 32 44 17 24 1012.6 1012.6 0.0
02/11:30am 17.7 8.6 1.7 34 7.2 SW 39 59 21 32 1012.4 1012.4 0.0
02/11:00am 17.0 7.5 4.0 42 6.1 SW 43 54 23 29 1012.3 1012.3 0.0
02/10:33am 17.2 9.4 3.1 39 6.5 WSW 33 52 18 28 1012.2 1012.2 0.0
02/10:30am 17.0 10.0 4.0 42 6.1 WSW 30 41 16 22 1012.2 1012.2 0.0
02/10:09am 17.1 9.7 3.8 41 6.2 WSW 32 50 17 27 1012.1 1012.1 0.0
02/10:00am 16.7 9.1 4.1 43 5.9 WSW 33 46 18 25 1012.1 1012.1 0.0
02/09:30am 16.7 10.1 4.1 43 5.9 W 28 39 15 21 1011.9 1011.9 0.0
02/09:00am 15.5 8.2 4.3 47 5.2 WNW 32 39 17 21 1011.8 1011.8 0.0
02/08:30am 14.8 8.3 4.8 51 4.7 WNW 28 39 15 21 1011.7 1011.7 0.0
02/08:00am 13.6 6.7 4.7 55 4.1 WNW 30 37 16 20 1011.6 1011.6 0.0
02/07:30am 13.0 6.5 4.8 57 3.8 WNW 28 35 15 19 1011.5 1011.5 0.0
02/07:00am 13.4 7.0 3.4 50 4.5 WNW 26 37 14 20 1011.3 1011.3 0.0
02/06:30am 13.2 5.7 3.7 52 4.3 WNW 32 41 17 22 1011.1 1011.1 0.0
02/06:00am 12.7 6.4 3.8 54 4.0 WNW 26 33 14 18 1010.9 1010.9 0.0
02/05:31am 13.0 5.9 3.7 53 4.2 WNW 30 48 16 26 1010.4 1010.4 0.0
02/05:30am 13.1 5.6 3.5 52 4.3 WNW 32 48 17 26 1010.3 1010.3 0.0
02/05:27am 13.2 6.1 3.7 52 4.3 WNW 30 48 16 26 1010.2 1010.2 0.0
02/05:00am 12.7 6.0 3.8 54 4.0 WNW 28 41 15 22 1009.9 1009.9 0.0
02/04:30am 12.8 6.9 3.7 54 4.1 WNW 24 33 13 18 1009.9 1009.9 0.0
02/04:00am 12.9 6.6 3.8 54 4.1 NW 26 37 14 20 1010.1 1010.1 0.0
02/03:43am 13.1 6.4 3.5 52 4.3 WNW 28 46 15 25 1009.8 1009.8 0.0
02/03:30am 12.9 7.0 4.1 55 4.0 WNW 24 33 13 18 1009.8 1009.8 0.0
02/03:00am 13.1 6.0 3.8 53 4.2 WNW 30 48 16 26 1009.8 1009.8 0.0
02/02:54am 13.5 6.7 3.2 49 4.6 WNW 28 48 15 26 1009.9 1009.9 0.0
02/02:30am 13.0 6.0 4.0 54 4.1 WNW 30 44 16 24 1010.0 1010.0 0.0
02/02:07am 12.8 5.3 4.2 56 3.9 NW 33 52 18 28 1009.9 1009.9 0.0
02/02:00am 13.4 5.0 3.7 52 4.4 NW 37 52 20 28 1010.0 1010.0 0.0
02/01:30am 13.0 5.5 4.2 55 4.0 NW 33 43 18 23 1010.2 1010.2 0.0
02/01:00am 13.3 5.6 3.5 51 4.4 NW 33 46 18 25 1010.7 1010.7 0.0
02/12:30am 13.6 5.2 3.7 51 4.5 NW 37 57 20 31 1010.9 1010.9 0.0
02/12:29am 13.5 5.1 3.8 52 4.4 NW 37 57 20 31 1011.0 1011.0 0.0
02/12:00am 13.4 3.6 3.4 50 4.5 WNW 44 54 24 29 1011.2 1011.2 0.0
 
Date/Time
EST
Tmp

°C
App
Tmp
°C
Dew
Point
°C
Rel
Hum
%
Delta-T

°C
Wind Press
QNH
hPa
Press
MSL
hPa
Rain
since
9 am
mm
Dir
 
Spd
km/h
Gust
km/h
Spd
kts
Gust
kts
01/11:30pm 13.2 5.2 3.7 52 4.3 WNW 35 56 19 30 1011.2 1011.2 0.0
01/11:08pm 13.2 6.2 4.2 54 4.1 WNW 30 50 16 27 1011.4 1011.4 0.0
01/11:00pm 13.0 7.6 4.5 56 3.9 NW 22 43 12 23 1011.7 1011.7 0.0
01/10:30pm 12.5 7.1 4.4 58 3.7 NW 22 35 12 19 1011.9 1011.9 0.0
01/10:00pm 11.7 6.7 4.7 62 3.2 NNW 20 35 11 19 1012.3 1012.3 0.0
01/09:30pm 11.6 6.8 4.5 61 3.2 N 19 28 10 15 1012.6 1012.6 0.0
01/09:00pm 11.0 6.0 4.6 64 2.9 N 20 32 11 17 1012.9 1012.9 0.0
01/08:30pm 10.8 5.7 4.1 63 3.0 N 20 30 11 16 1013.4 1013.4 0.0
01/08:00pm 11.0 6.0 3.8 61 3.2 NNW 19 28 10 15 1013.7 1013.7 0.0
01/07:30pm 11.0 5.9 2.9 57 3.5 NNW 19 26 10 14 1014.1 1014.1 0.0
01/07:00pm 11.4 3.7 2.3 53 3.9 NW 32 43 17 23 1014.3 1014.3 0.0
01/06:30pm 11.6 4.2 2.0 51 4.1 NW 30 43 16 23 1014.7 1014.7 0.0
01/06:00pm 11.8 4.4 1.7 50 4.3 WNW 30 39 16 21 1014.8 1014.8 0.0
01/05:30pm 12.2 5.0 1.0 46 4.7 WNW 28 35 15 19 1015.0 1015.0 0.0
01/05:00pm 13.1 6.2 0.1 41 5.4 WNW 26 35 14 19 1014.5 1014.5 0.0
01/04:30pm 13.8 7.2 -0.5 37 5.9 WNW 24 33 13 18 1014.2 1014.2 0.0
01/04:00pm 14.1 7.5 -0.7 36 6.1 W 24 35 13 19 1014.1 1014.1 0.0
01/03:30pm 14.2 6.5 -0.2 37 6.0 W 30 37 16 20 1014.0 1014.0 0.0
01/03:00pm 14.1 7.5 -0.7 36 6.1 W 24 33 13 18 1013.7 1013.7 0.0
01/02:30pm 12.8 5.4 1.6 46 4.8 SW 30 39 16 21 1014.2 1014.2 0.0
01/02:25pm 12.9 5.8 1.1 44 5.0 SW 28 46 15 25 1014.0 1014.0 0.0
01/02:00pm 14.5 7.6 0.0 37 6.1 WNW 26 39 14 21 1013.7 1013.7 0.0
01/01:30pm 13.9 8.3 1.1 41 5.5 NW 20 30 11 16 1013.6 1013.6 0.0
01/01:00pm 13.1 7.1 0.8 43 5.2 SSW 22 33 12 18 1013.8 1013.8 0.0
01/12:36pm 12.4 5.2 0.4 43 5.0 SW 28 54 15 29 1014.0 1014.0 0.0
01/12:30pm 13.3 7.1 -0.2 39 5.6 SSW 22 35 12 19 1014.0 1014.0 0.0
01/12:00pm 14.6 6.8 -0.9 34 6.4 WNW 30 48 16 26 1013.9 1013.9 0.0
01/11:53am 14.2 6.0 -0.9 35 6.2 W 32 48 17 26 1013.9 1013.9 0.0
01/11:30am 12.8 7.4 1.0 44 5.0 SSW 19 28 10 15 1013.9 1013.9 0.0
01/11:00am 12.5 5.8 -1.2 38 5.5 W 24 37 13 20 1013.7 1013.7 0.0
01/10:30am 11.5 6.0 0.6 47 4.5 NW 19 28 10 15 1013.8 1013.8 0.0
01/10:00am 11.6 6.3 -0.9 42 5.0 WNW 17 28 9 15 1014.0 1014.0 0.0
01/09:30am 11.3 5.1 0.0 45 4.6 W 22 41 12 22 1013.9 1013.9 0.0
01/09:00am 11.2 3.0 -0.8 43 4.8 W 32 50 17 27 1013.8 1013.8 1.4
01/08:30am 11.1 6.2 -0.6 44 4.7 NW 15 24 8 13 1013.5 1013.5 1.4
01/08:00am 9.6 4.7 1.7 58 3.3 NW 17 26 9 14 1013.0 1013.0 1.4
01/07:30am 8.7 3.7 1.4 60 3.0 NW 17 22 9 12 1012.7 1012.7 1.4
01/07:00am 7.5 3.0 1.9 67 2.3 NW 15 19 8 10 1012.1 1012.1 1.4
01/06:30am 6.9 2.1 0.3 63 2.6 WNW 15 20 8 11 1011.6 1011.6 1.4
01/06:00am 6.6 0.1 0.2 63 2.5 W 24 39 13 21 1010.8 1010.8 1.4
01/05:33am 7.4 -1.3 -0.3 58 3.0 SW 35 54 19 29 1010.2 1010.2 1.4
01/05:30am 7.5 -1.2 -0.5 57 3.1 WSW 35 46 19 25 1010.3 1010.3 1.4
01/05:00am 7.1 -0.1 -1.7 53 3.3 WSW 26 52 14 28 1009.4 1009.4 1.4
01/04:52am 6.9 -3.1 -1.3 56 3.1 WSW 41 52 22 28 1009.2 1009.2 1.4
01/04:30am 6.2 1.5 0.9 69 2.1 W 15 19 8 10 1008.8 1008.8 1.4
01/04:00am 6.0 0.0 0.9 70 2.0 WNW 22 26 12 14 1008.1 1008.1 1.4
01/03:30am 5.6 1.6 0.8 71 1.9 W 11 15 6 8 1007.5 1007.5 1.4
01/03:00am 6.3 2.7 0.7 67 2.2 NNW 9 17 5 9 1007.1 1007.1 1.4
01/02:30am 5.0 -0.3 2.0 81 1.2 W 19 28 10 15 1006.5 1006.5 1.4
01/02:02am 5.6 -3.8 2.2 79 1.4 WSW 41 63 22 34 1006.6 1006.6 1.2
01/02:00am 5.7 -3.4 1.7 75 1.6 WSW 39 54 21 29 1006.7 1006.7 0.8
01/01:49am 7.4 -1.7 -0.3 58 3.0 WSW 37 44 20 24 1006.6 1006.6 0.4
01/01:30am 6.8 1.5 1.6 69 2.1 NNW 19 28 10 15 1005.8 1005.8 0.4
01/01:00am 6.3 0.2 0.7 67 2.2 NW 22 30 12 16 1005.2 1005.2 0.4
01/12:30am 5.9 1.5 0.5 68 2.1 W 13 19 7 10 1005.0 1005.0 0.4
01/12:00am 6.5 2.2 0.7 66 2.3 W 13 19 7 10 1004.6 1004.6 0.4
 
Date/Time
EST
Tmp

°C
App
Tmp
°C
Dew
Point
°C
Rel
Hum
%
Delta-T

°C
Wind Press
QNH
hPa
Press
MSL
hPa
Rain
since
9 am
mm
Dir
 
Spd
km/h
Gust
km/h
Spd
kts
Gust
kts
30/11:30pm 7.9 1.4 0.4 59 3.0 NW 24 30 13 16 1004.0 1004.0 0.4
30/11:00pm 7.6 3.0 -1.0 54 3.3 NNW 13 17 7 9 1003.3 1003.3 0.4
30/10:30pm 7.9 1.7 -0.2 56 3.2 NW 22 26 12 14 1003.0 1003.0 0.4
30/10:00pm 7.4 3.2 1.5 66 2.4 NNW 13 20 7 11 1002.6 1002.6 0.4
30/09:30pm 7.9 3.5 0.1 58 3.1 NW 13 17 7 9 1001.9 1001.9 0.4
30/09:00pm 8.3 3.6 0.6 58 3.1 NW 15 22 8 12 1001.4 1001.4 0.4
30/08:30pm 8.7 3.5 -0.1 54 3.5 WNW 17 26 9 14 1001.0 1001.0 0.4
30/08:00pm 9.2 3.5 -0.7 50 3.9 WNW 19 30 10 16 1000.0 1000.0 0.4
30/07:30pm 9.6 4.3 -0.7 48 4.1 W 17 24 9 13 999.2 999.2 0.4
30/07:00pm 9.3 1.3 1.9 60 3.1 WSW 33 41 18 22 998.6 998.6 0.4
30/06:49pm 9.6 0.8 1.5 57 3.4 WSW 37 56 20 30 998.3 998.3 0.4
30/06:40pm 9.8 -0.1 1.4 56 3.5 SW 43 56 23 30 998.0 998.0 0.4
30/06:30pm 9.9 4.6 3.0 62 3.0 SW 20 30 11 16 997.5 997.5 0.4
30/06:00pm 11.0 4.1 4.6 64 2.9 W 30 37 16 20 996.6 996.7 0.4
30/05:32pm 12.4 5.7 3.8 55 3.9 WNW 28 48 15 26 995.5 995.6 0.4
30/05:30pm 12.5 6.2 3.6 54 4.0 WNW 26 48 14 26 995.4 995.5 0.4
30/05:00pm 12.7 7.4 5.0 59 3.6 WNW 22 30 12 16 994.5 994.6 0.4
30/04:30pm 12.4 7.6 5.6 63 3.2 NW 20 30 11 16 993.7 993.8 0.4
30/04:00pm 12.0 7.4 6.4 68 2.7 WNW 20 26 11 14 993.3 993.4 0.4
30/03:30pm 12.1 7.2 6.9 70 2.5 NNW 22 35 12 19 993.5 993.6 0.4
30/03:00pm 11.3 7.7 8.3 82 1.5 N 17 22 9 12 994.0 994.1 0.4
30/02:30pm 12.1 10.5 8.9 81 1.6 ESE 7 9 4 5 994.5 994.6 0.0
30/02:18pm 11.9 8.0 9.3 84 1.3 S 20 28 11 15 994.3 994.4 0.0
30/02:07pm 12.1 4.6 9.4 83 1.4 SSW 39 57 21 31 994.1 994.2 0.0
30/02:00pm 12.4 4.4 9.1 80 1.7 SW 41 52 22 28 993.9 994.0 0.0
30/01:55pm 13.8 4.3 6.6 62 3.5 W 46 65 25 35 993.9 994.0 0.0
30/01:45pm 14.4 4.0 6.1 57 4.0 WNW 50 63 27 34 993.1 993.2 0.0
30/01:31pm 17.5 11.1 5.4 45 5.8 NNW 28 48 15 26 992.4 992.5 0.0
30/01:30pm 17.5 11.6 5.7 46 5.7 NNW 26 44 14 24 992.3 992.4 0.0
30/01:00pm 17.6 13.5 7.8 52 5.0 NNW 19 28 10 15 992.7 992.8 0.0
30/12:30pm 17.6 10.9 7.4 51 5.1 NW 32 39 17 21 992.9 993.0 0.0
30/12:00pm 17.9 9.3 6.5 47 5.7 NW 41 54 22 29 993.2 993.3 0.0
30/11:44am 18.3 11.0 7.1 48 5.6 WNW 35 56 19 30 993.6 993.7 0.0
30/11:30am 18.1 8.6 6.8 47 5.6 NW 46 57 25 31 993.9 994.0 0.0
30/11:03am 18.7 11.9 5.2 41 6.6 NNW 30 48 16 26 993.7 993.8 0.0
30/11:00am 18.5 12.2 5.5 42 6.4 NNW 28 41 15 22 993.7 993.8 0.0
30/10:33am 18.7 11.4 4.7 39 6.7 NNW 32 52 17 28 994.1 994.2 0.0
30/10:30am 18.7 11.8 4.4 39 6.8 NNW 30 41 16 22 994.1 994.2 0.0
30/10:21am 18.9 11.0 4.4 38 6.9 NW 35 54 19 29 994.0 994.1 0.0
30/10:00am 19.0 11.5 4.6 38 7.0 NNW 33 48 18 26 994.6 994.7 0.0
30/09:32am 18.5 11.0 3.2 36 7.1 NNW 32 54 17 29 995.3 995.4 0.0
30/09:30am 18.6 10.8 2.7 34 7.3 NNW 33 50 18 27 995.3 995.4 0.0
30/09:00am 17.7 11.0 3.4 38 6.7 NNW 28 46 15 25 995.6 995.7 0.2
30/08:43am 17.4 9.5 2.3 36 6.8 NNW 33 56 18 30 996.0 996.1 0.2
30/08:30am 16.8 10.4 3.2 40 6.2 NNW 26 44 14 24 996.1 996.2 0.2
30/08:00am 16.0 7.9 3.2 42 5.9 NNW 35 54 19 29 997.0 997.1 0.2
30/07:36am 15.4 7.3 3.5 45 5.4 NNW 35 56 19 30 996.8 996.9 0.2
30/07:30am 15.1 7.6 3.6 46 5.3 NNW 32 48 17 26 996.7 996.8 0.2
30/07:00am 14.3 7.6 3.6 48 4.9 NNW 28 46 15 25 996.9 997.0 0.2
30/06:44am 13.4 6.8 4.0 53 4.3 NNW 28 48 15 26 997.4 997.4 0.2
30/06:30am 13.3 7.5 4.2 54 4.1 NNW 24 41 13 22 997.7 997.7 0.2
30/06:00am 12.9 8.3 3.9 54 4.1 NNW 17 30 9 16 998.2 998.2 0.2
30/05:30am 13.2 8.6 3.7 52 4.3 NNW 17 35 9 19 998.7 998.7 0.2
30/05:00am 13.2 8.9 3.2 50 4.5 NNW 15 20 8 11 998.9 998.9 0.2
30/04:30am 14.2 9.0 2.6 45 5.1 NNW 19 35 10 19 999.3 999.3 0.2
30/04:00am 14.0 9.6 2.6 46 5.1 NNW 15 28 8 15 999.6 999.6 0.2
30/03:30am 13.9 10.3 2.7 46 5.0 N 11 20 6 11 999.9 999.9 0.2
30/03:00am 14.2 9.9 3.4 48 4.9 NNW 15 24 8 13 1000.3 1000.3 0.2
30/02:30am 14.6 9.3 3.1 46 5.2 NNW 20 33 11 18 1000.6 1000.6 0.2
30/02:00am 14.6 9.0 3.7 48 5.0 NNW 22 37 12 20 1001.2 1001.2 0.2
30/01:30am 14.5 10.4 4.1 49 4.8 N 15 28 8 15 1001.6 1001.6 0.2
30/01:00am 14.6 9.6 3.7 48 5.0 N 19 30 10 16 1002.1 1002.1 0.2
30/12:30am 13.7 10.3 3.8 51 4.5 N 11 19 6 10 1002.3 1002.3 0.2

Latest Capital City Observations: Canberra | Sydney | Melbourne | Brisbane | Adelaide | Perth | Hobart | Darwin

Other Formats:

Comma delimited format used in spreadsheet applications
http://www.bom.gov.au/fwo/IDT60901/IDT60901.94975.axf

JavaScript Object Notation format (JSON) in row-major order
http://www.bom.gov.au/fwo/IDT60901/IDT60901.94975.json